createdAt,value
2019-04-07T00:00:43.674Z,304.44
2019-04-07T00:01:43.547Z,304.25
2019-04-07T00:02:43.936Z,305.05
2019-04-07T00:03:43.698Z,304.61
2019-04-07T00:04:44.202Z,304.42
2019-04-07T00:05:43.805Z,304.14
2019-04-07T00:06:43.486Z,304.80
2019-04-07T00:07:43.631Z,304.37
2019-04-07T00:08:43.491Z,304.60
2019-04-07T00:09:43.674Z,304.85
2019-04-07T00:10:43.544Z,304.61
2019-04-07T00:11:44.077Z,304.55
2019-04-07T00:12:43.423Z,304.84
2019-04-07T00:13:43.403Z,304.45
2019-04-07T00:14:43.729Z,304.59
2019-04-07T00:15:43.402Z,304.30
2019-04-07T00:16:43.834Z,304.61
2019-04-07T00:17:43.359Z,304.96
2019-04-07T00:18:43.362Z,304.51
2019-04-07T00:19:43.630Z,304.88
2019-04-07T00:20:43.798Z,304.86
2019-04-07T00:21:43.305Z,304.38
2019-04-07T00:22:43.296Z,304.70
2019-04-07T00:23:43.297Z,304.77
2019-04-07T00:24:43.365Z,304.83
2019-04-07T00:25:43.266Z,305.10
2019-04-07T00:26:43.264Z,304.37
2019-04-07T00:27:43.711Z,304.24
2019-04-07T00:28:43.702Z,304.90
2019-04-07T00:29:43.235Z,304.69
2019-04-07T00:30:43.241Z,304.88
2019-04-07T00:31:43.197Z,304.36
2019-04-07T00:32:43.186Z,304.78
2019-04-07T00:33:43.734Z,304.27
2019-04-07T00:34:43.165Z,304.67
2019-04-07T00:35:43.612Z,304.73
2019-04-07T00:36:43.239Z,304.64
2019-04-07T00:37:43.145Z,304.83
2019-04-07T00:38:43.139Z,304.84
2019-04-07T00:39:43.487Z,304.77
2019-04-07T00:40:43.102Z,304.46
2019-04-07T00:41:43.112Z,304.63
2019-04-07T00:42:43.093Z,304.82
2019-04-07T00:43:43.074Z,304.16
2019-04-07T00:44:43.274Z,304.56
2019-04-07T00:45:43.217Z,304.37
2019-04-07T00:46:43.250Z,304.42
2019-04-07T00:47:43.027Z,304.67
2019-04-07T00:48:43.013Z,304.31
2019-04-07T00:49:43.444Z,304.28
2019-04-07T00:50:42.993Z,304.44
2019-04-07T00:51:43.228Z,304.58
2019-04-07T00:52:42.974Z,304.83
2019-04-07T00:53:42.955Z,304.77
2019-04-07T00:54:43.304Z,304.48
2019-04-07T00:55:42.950Z,304.42
2019-04-07T00:56:43.867Z,304.88
2019-04-07T00:57:43.033Z,304.96
2019-04-07T00:58:43.436Z,305.17
2019-04-07T00:59:42.898Z,304.79
2019-04-07T01:00:43.414Z,304.45
2019-04-07T01:01:42.906Z,304.72
2019-04-07T01:02:42.956Z,304.87
2019-04-07T01:03:43.044Z,305.07
2019-04-07T01:04:43.014Z,305.39
2019-04-07T01:05:43.544Z,304.51
2019-04-07T01:06:42.813Z,304.59
2019-04-07T01:07:43.639Z,305.09
2019-04-07T01:08:42.792Z,304.45
2019-04-07T01:09:43.177Z,304.53
2019-04-07T01:10:42.783Z,304.61
2019-04-07T01:11:43.076Z,304.86
2019-04-07T01:12:42.747Z,304.38
2019-04-07T01:13:42.826Z,304.68
2019-04-07T01:14:43.383Z,304.61
2019-04-07T01:15:43.460Z,304.58
2019-04-07T01:16:42.757Z,304.76
2019-04-07T01:17:42.697Z,304.71
2019-04-07T01:18:42.704Z,305.10
2019-04-07T01:19:43.281Z,304.80
2019-04-07T01:20:43.032Z,305.43
2019-04-07T01:21:42.647Z,304.21
2019-04-07T01:22:42.648Z,305.19
2019-04-07T01:23:42.642Z,304.95
2019-04-07T01:24:43.156Z,304.93
2019-04-07T01:25:42.613Z,304.46
2019-04-07T01:26:42.594Z,304.61
2019-04-07T01:27:42.580Z,304.87
2019-04-07T01:28:42.963Z,305.02
2019-04-07T01:29:42.593Z,304.62
2019-04-07T01:30:42.657Z,304.26
2019-04-07T01:31:43.081Z,304.66
2019-04-07T01:32:42.537Z,304.52
2019-04-07T01:33:43.082Z,304.73
2019-04-07T01:34:42.706Z,304.39
2019-04-07T01:35:48.072Z,304.83
2019-04-07T01:36:43.490Z,304.90
2019-04-07T01:37:42.905Z,304.63
2019-04-07T01:38:42.467Z,305.08
2019-04-07T01:39:42.621Z,305.30
2019-04-07T01:40:42.453Z,304.28
2019-04-07T01:41:42.984Z,304.66
2019-04-07T01:42:42.412Z,304.65
2019-04-07T01:43:42.420Z,304.91
2019-04-07T01:44:42.433Z,304.35
2019-04-07T01:45:42.395Z,304.47
2019-04-07T01:46:42.729Z,305.21
2019-04-07T01:47:42.366Z,304.54
2019-04-07T01:48:42.346Z,304.64
2019-04-07T01:49:42.370Z,305.01
2019-04-07T01:50:42.804Z,304.81
2019-04-07T01:51:42.312Z,304.95
2019-04-07T01:52:42.611Z,304.80
2019-04-07T01:53:42.291Z,304.80
2019-04-07T01:54:42.284Z,305.00
2019-04-07T01:55:42.304Z,305.34
2019-04-07T01:56:42.701Z,304.93
2019-04-07T01:57:42.253Z,304.67
2019-04-07T01:58:42.798Z,304.10
2019-04-07T01:59:42.225Z,304.70
2019-04-07T02:00:42.946Z,304.89
2019-04-07T02:01:42.750Z,304.90
2019-04-07T02:02:42.191Z,305.23
2019-04-07T02:03:42.213Z,305.17
2019-04-07T02:04:42.480Z,304.60
2019-04-07T02:05:42.183Z,304.70
2019-04-07T02:06:42.160Z,304.90
2019-04-07T02:07:42.146Z,304.86
2019-04-07T02:08:42.808Z,305.02
2019-04-07T02:09:42.125Z,304.46
2019-04-07T02:10:42.809Z,305.03
2019-04-07T02:11:42.103Z,304.85
2019-04-07T02:12:42.371Z,304.73
2019-04-07T02:13:42.871Z,305.06
2019-04-07T02:14:42.067Z,304.58
2019-04-07T02:15:42.176Z,305.05
2019-04-07T02:16:42.099Z,304.76
2019-04-07T02:17:42.742Z,304.46
2019-04-07T02:18:42.030Z,305.11
2019-04-07T02:19:42.071Z,304.85
2019-04-07T02:20:42.205Z,304.47
2019-04-07T02:21:42.815Z,304.80
2019-04-07T02:22:42.034Z,304.93
2019-04-07T02:23:42.093Z,304.62
2019-04-07T02:24:42.250Z,304.88
2019-04-07T02:25:41.937Z,304.51
2019-04-07T02:26:42.198Z,305.09
2019-04-07T02:27:41.944Z,304.89
2019-04-07T02:28:41.942Z,304.61
2019-04-07T02:29:42.448Z,304.93
2019-04-07T02:30:41.898Z,304.94
2019-04-07T02:31:42.280Z,304.63
2019-04-07T02:32:42.206Z,304.91
2019-04-07T02:33:42.466Z,304.67
2019-04-07T02:34:42.868Z,304.72
2019-04-07T02:35:41.969Z,305.21
2019-04-07T02:36:41.969Z,304.77
2019-04-07T02:37:42.576Z,305.02
2019-04-07T02:38:42.389Z,304.68
2019-04-07T02:39:42.193Z,304.77
2019-04-07T02:40:42.652Z,304.87
2019-04-07T02:41:42.159Z,304.73
2019-04-07T02:42:42.640Z,304.46
2019-04-07T02:43:42.483Z,304.85
2019-04-07T02:44:41.729Z,304.65
2019-04-07T02:45:41.721Z,304.65
2019-04-07T02:46:41.711Z,305.17
2019-04-07T02:47:42.041Z,304.58
2019-04-07T02:48:42.640Z,304.71
2019-04-07T02:49:41.685Z,304.38
2019-04-07T02:50:41.680Z,304.63
2019-04-07T02:51:42.123Z,305.03
2019-04-07T02:52:41.678Z,305.16
2019-04-07T02:53:41.657Z,304.55
2019-04-07T02:54:42.881Z,305.08
2019-04-07T02:55:42.300Z,304.70
2019-04-07T02:56:42.365Z,304.99
2019-04-07T02:57:42.163Z,304.88
2019-04-07T02:58:41.594Z,304.75
2019-04-07T02:59:42.985Z,305.17
2019-04-07T03:00:41.595Z,305.22
2019-04-07T03:01:41.562Z,305.00
2019-04-07T03:02:41.540Z,304.70
2019-04-07T03:03:41.554Z,305.01
2019-04-07T03:04:41.668Z,304.88
2019-04-07T03:05:42.191Z,304.81
2019-04-07T03:06:47.702Z,304.80
2019-04-07T03:07:43.079Z,305.14
2019-04-07T03:08:41.502Z,304.77
2019-04-07T03:09:41.943Z,304.92
2019-04-07T03:10:41.447Z,304.63
2019-04-07T03:11:42.654Z,304.45
2019-04-07T03:12:41.484Z,304.76
2019-04-07T03:13:41.470Z,304.53
2019-04-07T03:14:41.412Z,305.01
2019-04-07T03:15:41.395Z,304.98
2019-04-07T03:16:41.814Z,304.75
2019-04-07T03:17:41.610Z,304.67
2019-04-07T03:18:42.465Z,305.32
2019-04-07T03:19:41.734Z,304.96
2019-04-07T03:20:41.394Z,304.72
2019-04-07T03:21:41.543Z,304.75
2019-04-07T03:22:41.900Z,304.72
2019-04-07T03:23:41.606Z,304.97
2019-04-07T03:24:42.142Z,305.03
2019-04-07T03:25:42.158Z,304.88
2019-04-07T03:26:41.275Z,304.80
2019-04-07T03:27:42.242Z,305.26
2019-04-07T03:28:42.229Z,305.13
2019-04-07T03:29:41.764Z,304.85
2019-04-07T03:30:41.964Z,304.63
2019-04-07T03:31:43.377Z,305.22
2019-04-07T03:32:45.070Z,304.95
2019-04-07T03:33:43.409Z,304.37
2019-04-07T03:34:41.353Z,305.27
2019-04-07T03:35:44.859Z,304.66
2019-04-07T03:37:08.947Z,304.91
2019-04-07T03:37:44.624Z,305.00
2019-04-07T03:38:42.893Z,305.11
2019-04-07T03:39:41.156Z,304.77
2019-04-07T03:40:41.290Z,305.29
2019-04-07T03:41:41.110Z,304.56
2019-04-07T03:42:41.644Z,304.65
2019-04-07T03:43:41.786Z,304.55
2019-04-07T03:44:41.165Z,304.65
2019-04-07T03:45:41.391Z,305.29
2019-04-07T03:46:41.350Z,305.20
2019-04-07T03:47:41.862Z,305.14
2019-04-07T03:48:41.639Z,305.14
2019-04-07T03:49:41.433Z,305.08
2019-04-07T03:50:41.029Z,304.85
2019-04-07T03:51:41.698Z,304.80
2019-04-07T03:52:40.985Z,305.39
2019-04-07T03:53:41.084Z,304.34
2019-04-07T03:54:40.959Z,305.32
2019-04-07T03:55:41.040Z,305.37
2019-04-07T03:56:41.595Z,304.74
2019-04-07T03:57:41.153Z,305.16
2019-04-07T03:58:40.933Z,305.16
2019-04-07T03:59:40.936Z,305.12
2019-04-07T04:00:41.092Z,305.02
2019-04-07T04:01:41.603Z,304.68
2019-04-07T04:02:41.129Z,304.55
2019-04-07T04:03:40.870Z,305.47
2019-04-07T04:04:41.546Z,305.35
2019-04-07T04:05:41.390Z,305.28
2019-04-07T04:06:41.962Z,305.19
2019-04-07T04:07:41.793Z,305.17
2019-04-07T04:08:41.725Z,304.71
2019-04-07T04:09:42.188Z,304.65
2019-04-07T04:10:40.948Z,305.07
2019-04-07T04:11:40.782Z,305.10
2019-04-07T04:12:41.591Z,305.00
2019-04-07T04:13:41.106Z,305.06
2019-04-07T04:14:40.748Z,305.13
2019-04-07T04:15:41.527Z,305.34
2019-04-07T04:16:40.744Z,304.96
2019-04-07T04:17:41.315Z,305.16
2019-04-07T04:18:40.736Z,305.08
2019-04-07T04:19:40.835Z,304.68
2019-04-07T04:20:40.902Z,304.76
2019-04-07T04:21:40.694Z,305.07
2019-04-07T04:22:40.652Z,305.15
2019-04-07T04:23:42.974Z,305.00
2019-04-07T04:24:40.633Z,305.20
2019-04-07T04:25:40.773Z,304.77
2019-04-07T04:26:40.636Z,305.15
2019-04-07T04:27:40.629Z,305.18
2019-04-07T04:28:40.878Z,304.78
2019-04-07T04:29:41.448Z,304.90
2019-04-07T04:30:40.568Z,305.14
2019-04-07T04:31:40.659Z,304.89
2019-04-07T04:32:41.418Z,305.40
2019-04-07T04:33:40.629Z,305.36
2019-04-07T04:34:41.042Z,305.10
2019-04-07T04:35:40.923Z,304.98
2019-04-07T04:36:40.624Z,305.24
2019-04-07T04:37:47.613Z,305.02
2019-04-07T04:38:41.510Z,304.81
2019-04-07T04:39:41.019Z,305.17
2019-04-07T04:40:40.833Z,305.31
2019-04-07T04:41:40.630Z,304.95
2019-04-07T04:42:40.847Z,305.65
2019-04-07T04:43:40.477Z,304.96
2019-04-07T04:44:40.591Z,305.01
2019-04-07T04:45:40.599Z,304.83
2019-04-07T04:46:41.119Z,305.23
2019-04-07T04:47:40.733Z,304.74
2019-04-07T04:48:40.986Z,305.17
2019-04-07T04:49:40.745Z,305.36
2019-04-07T04:50:40.354Z,305.56
2019-04-07T04:51:41.020Z,304.81
2019-04-07T04:52:40.822Z,305.51
2019-04-07T04:53:40.353Z,305.06
2019-04-07T04:54:40.820Z,305.23
2019-04-07T04:55:40.582Z,305.13
2019-04-07T04:56:40.280Z,305.30
2019-04-07T04:57:40.550Z,305.20
2019-04-07T04:58:40.449Z,305.09
2019-04-07T04:59:40.390Z,305.05
2019-04-07T05:00:41.217Z,305.33
2019-04-07T05:01:40.233Z,305.30
2019-04-07T05:02:40.234Z,305.51
2019-04-07T05:03:40.562Z,305.10
2019-04-07T05:04:40.173Z,305.56
2019-04-07T05:05:41.251Z,305.17
2019-04-07T05:06:40.161Z,304.63
2019-04-07T05:07:50.136Z,305.21
2019-04-07T05:08:41.136Z,305.25
2019-04-07T05:09:46.509Z,305.00
2019-04-07T05:10:41.651Z,305.75
2019-04-07T05:11:40.795Z,305.25
2019-04-07T05:12:40.314Z,305.29
2019-04-07T05:13:40.078Z,305.27
2019-04-07T05:14:40.136Z,305.48
2019-04-07T05:15:40.083Z,305.31
2019-04-07T05:16:40.058Z,305.58
2019-04-07T05:17:40.315Z,305.42
2019-04-07T05:18:40.029Z,305.75
2019-04-07T05:19:42.797Z,305.44
2019-04-07T05:20:40.046Z,305.37
2019-04-07T05:21:40.447Z,305.59
2019-04-07T05:22:39.995Z,305.58
2019-04-07T05:23:40.620Z,306.02
2019-04-07T05:24:40.073Z,305.37
2019-04-07T05:25:40.345Z,305.72
2019-04-07T05:26:40.540Z,305.37
2019-04-07T05:27:40.372Z,306.11
2019-04-07T05:28:40.468Z,306.30
2019-04-07T05:29:40.195Z,306.31
2019-04-07T05:30:39.901Z,306.07
2019-04-07T05:31:40.168Z,306.15
2019-04-07T05:32:40.012Z,306.30
2019-04-07T05:33:39.995Z,306.48
2019-04-07T05:34:40.280Z,305.99
2019-04-07T05:35:40.463Z,306.30
2019-04-07T05:36:40.125Z,306.18
2019-04-07T05:37:40.565Z,306.71
2019-04-07T05:38:39.834Z,306.31
2019-04-07T05:39:40.386Z,306.45
2019-04-07T05:40:39.998Z,305.97
2019-04-07T05:41:40.001Z,306.39
2019-04-07T05:42:40.039Z,306.47
2019-04-07T05:43:40.530Z,306.37
2019-04-07T05:44:39.809Z,306.44
2019-04-07T05:45:40.009Z,306.90
2019-04-07T05:46:42.436Z,306.45
2019-04-07T05:47:43.624Z,306.22
2019-04-07T05:48:41.993Z,306.55
2019-04-07T05:49:39.712Z,306.20
2019-04-07T05:50:39.689Z,306.22
2019-04-07T05:51:40.241Z,306.50
2019-04-07T05:52:40.782Z,306.45
2019-04-07T05:53:39.976Z,306.35
2019-04-07T05:54:40.222Z,306.73
2019-04-07T05:55:39.765Z,306.07
2019-04-07T05:56:40.326Z,306.07
2019-04-07T05:57:39.925Z,305.52
2019-04-07T05:58:41.105Z,306.80
2019-04-07T05:59:39.874Z,306.04
2019-04-07T06:00:39.570Z,306.58
2019-04-07T06:01:40.161Z,306.20
2019-04-07T06:02:39.545Z,306.00
2019-04-07T06:03:42.835Z,306.33
2019-04-07T06:04:39.519Z,306.08
2019-04-07T06:05:39.982Z,306.05
2019-04-07T06:06:41.337Z,306.29
2019-04-07T06:07:39.491Z,306.14
2019-04-07T06:08:40.935Z,306.52
2019-04-07T06:09:39.467Z,306.42
2019-04-07T06:10:40.252Z,306.08
2019-04-07T06:11:40.045Z,306.23
2019-04-07T06:12:42.650Z,306.28
2019-04-07T06:13:40.035Z,306.10
2019-04-07T06:14:40.063Z,306.06
2019-04-07T06:15:39.386Z,306.26
2019-04-07T06:16:39.398Z,305.89
2019-04-07T06:17:39.889Z,306.28
2019-04-07T06:18:39.404Z,306.18
2019-04-07T06:19:41.240Z,306.07
2019-04-07T06:20:39.345Z,306.33
2019-04-07T06:21:39.915Z,305.84
2019-04-07T06:22:39.325Z,306.27
2019-04-07T06:23:39.552Z,306.23
2019-04-07T06:24:39.453Z,306.09
2019-04-07T06:25:41.934Z,305.98
2019-04-07T06:26:42.818Z,305.78
2019-04-07T06:27:40.469Z,305.62
2019-04-07T06:28:39.311Z,305.43
2019-04-07T06:29:39.877Z,306.48
2019-04-07T06:30:39.506Z,306.02
2019-04-07T06:31:39.271Z,306.14
2019-04-07T06:32:39.753Z,305.93
2019-04-07T06:33:39.406Z,306.33
2019-04-07T06:34:41.054Z,306.25
2019-04-07T06:35:39.186Z,306.25
2019-04-07T06:36:39.697Z,305.66
2019-04-07T06:37:39.829Z,306.60
2019-04-07T06:38:43.614Z,306.63
2019-04-07T06:39:40.677Z,306.19
2019-04-07T06:40:39.283Z,306.11
2019-04-07T06:41:39.152Z,306.79
2019-04-07T06:42:40.448Z,305.86
2019-04-07T06:43:40.147Z,305.82
2019-04-07T06:44:39.070Z,306.14
2019-04-07T06:45:39.917Z,305.45
2019-04-07T06:46:39.089Z,305.70
2019-04-07T06:47:39.731Z,305.78
2019-04-07T06:48:40.491Z,306.15
2019-04-07T06:49:42.690Z,305.42
2019-04-07T06:50:49.497Z,305.64
2019-04-07T06:51:40.029Z,305.49
2019-04-07T06:52:41.614Z,305.77
2019-04-07T06:53:39.202Z,305.46
2019-04-07T06:54:38.979Z,306.02
2019-04-07T06:55:39.496Z,305.58
2019-04-07T06:56:38.939Z,305.31
2019-04-07T06:57:38.941Z,306.13
2019-04-07T06:58:41.612Z,305.92
2019-04-07T06:59:39.411Z,305.35
2019-04-07T07:00:38.907Z,305.57
2019-04-07T07:01:39.406Z,305.98
2019-04-07T07:02:39.030Z,305.30
2019-04-07T07:03:39.119Z,305.22
2019-04-07T07:04:41.577Z,305.42
2019-04-07T07:05:38.843Z,305.45
2019-04-07T07:06:39.430Z,305.23
2019-04-07T07:07:38.941Z,305.52
2019-04-07T07:08:45.169Z,305.38
2019-04-07T07:09:39.820Z,305.57
2019-04-07T07:10:40.948Z,304.99
2019-04-07T07:11:42.793Z,305.20
2019-04-07T07:12:40.809Z,304.90
2019-04-07T07:13:41.341Z,304.99
2019-04-07T07:14:44.384Z,305.41
2019-04-07T07:15:39.953Z,304.97
2019-04-07T07:16:42.435Z,304.93
2019-04-07T07:17:40.184Z,305.18
2019-04-07T07:18:39.312Z,304.95
2019-04-07T07:19:39.132Z,305.12
2019-04-07T07:20:39.355Z,305.28
2019-04-07T07:21:39.590Z,305.33
2019-04-07T07:22:41.520Z,304.89
2019-04-07T07:23:38.651Z,305.03
2019-04-07T07:24:39.297Z,304.67
2019-04-07T07:25:38.670Z,304.75
2019-04-07T07:26:38.719Z,304.73
2019-04-07T07:27:40.433Z,304.88
2019-04-07T07:28:42.504Z,304.51
2019-04-07T07:29:38.705Z,304.20
2019-04-07T07:30:38.711Z,304.85
2019-04-07T07:31:39.185Z,304.53
2019-04-07T07:32:38.938Z,304.70
2019-04-07T07:33:41.475Z,304.80
2019-04-07T07:34:41.952Z,304.92
2019-04-07T07:35:38.861Z,304.41
2019-04-07T07:36:38.534Z,304.80
2019-04-07T07:37:38.774Z,304.99
2019-04-07T07:38:38.548Z,304.73
2019-04-07T07:39:41.843Z,304.95
2019-04-07T07:40:38.593Z,304.57
2019-04-07T07:41:38.875Z,305.27
2019-04-07T07:42:38.455Z,305.67
2019-04-07T07:43:39.022Z,305.05
2019-04-07T07:44:39.649Z,305.20
2019-04-07T07:45:42.970Z,304.88
2019-04-07T07:46:39.725Z,305.03
2019-04-07T07:47:38.450Z,305.02
2019-04-07T07:48:38.921Z,305.58
2019-04-07T07:49:40.964Z,305.10
2019-04-07T07:50:40.305Z,305.10
2019-04-07T07:51:39.580Z,304.96
2019-04-07T07:52:38.726Z,305.02
2019-04-07T07:53:38.369Z,305.32
2019-04-07T07:54:38.650Z,304.97
2019-04-07T07:55:38.635Z,305.51
2019-04-07T07:56:41.544Z,305.17
2019-04-07T07:57:39.289Z,305.32
2019-04-07T07:58:38.483Z,305.23
2019-04-07T07:59:39.405Z,305.22
2019-04-07T08:00:42.135Z,305.81
2019-04-07T08:01:38.229Z,305.28
2019-04-07T08:02:38.911Z,305.02
2019-04-07T08:03:39.265Z,305.45
2019-04-07T08:04:38.720Z,305.85
2019-04-07T08:05:38.256Z,305.50
2019-04-07T08:06:40.176Z,306.03
2019-04-07T08:07:38.167Z,305.33
2019-04-07T08:08:38.166Z,305.74
2019-04-07T08:09:38.182Z,305.30
2019-04-07T08:10:38.210Z,305.93
2019-04-07T08:11:38.917Z,305.95
2019-04-07T08:12:38.890Z,305.32
2019-04-07T08:13:43.373Z,305.54
2019-04-07T08:14:39.095Z,305.93
2019-04-07T08:15:38.098Z,305.92
2019-04-07T08:16:38.996Z,305.84
2019-04-07T08:17:38.090Z,305.59
2019-04-07T08:18:40.686Z,306.05
2019-04-07T08:19:42.096Z,305.75
2019-04-07T08:20:42.921Z,305.16
2019-04-07T08:21:39.201Z,305.09
2019-04-07T08:22:42.913Z,305.14
2019-04-07T08:23:41.196Z,305.64
2019-04-07T08:24:37.993Z,305.80
2019-04-07T08:25:37.976Z,305.50
2019-04-07T08:26:38.223Z,305.32
2019-04-07T08:27:38.688Z,305.11
2019-04-07T08:28:38.187Z,305.06
2019-04-07T08:29:39.032Z,305.32
2019-04-07T08:30:38.260Z,304.81
2019-04-07T08:31:38.448Z,304.54
2019-04-07T08:32:37.930Z,304.28
2019-04-07T08:33:38.571Z,304.25
2019-04-07T08:34:37.896Z,304.45
2019-04-07T08:35:39.549Z,305.24
2019-04-07T08:36:38.078Z,304.88
2019-04-07T08:37:38.345Z,304.94
2019-04-07T08:38:37.889Z,304.92
2019-04-07T08:39:38.664Z,304.47
2019-04-07T08:40:39.052Z,304.84
2019-04-07T08:41:41.141Z,304.68
2019-04-07T08:42:38.100Z,304.30
2019-04-07T08:43:37.781Z,303.96
2019-04-07T08:44:37.796Z,304.09
2019-04-07T08:45:38.147Z,303.60
2019-04-07T08:46:40.904Z,303.10
2019-04-07T08:47:38.084Z,302.59
2019-04-07T08:48:37.738Z,302.95
2019-04-07T08:49:38.075Z,302.71
2019-04-07T08:50:37.740Z,302.30
2019-04-07T08:51:37.704Z,302.74
2019-04-07T08:52:40.731Z,303.10
2019-04-07T08:53:37.850Z,303.15
2019-04-07T08:54:37.677Z,303.00
2019-04-07T08:55:37.694Z,303.73
2019-04-07T08:56:37.749Z,302.92
2019-04-07T08:57:37.647Z,302.88
2019-04-07T08:58:38.874Z,302.37
2019-04-07T08:59:42.432Z,302.54
2019-04-07T09:00:38.716Z,301.72
2019-04-07T09:01:37.597Z,302.41
2019-04-07T09:02:37.587Z,301.27
2019-04-07T09:03:37.580Z,301.92
2019-04-07T09:04:37.567Z,301.43
2019-04-07T09:05:37.570Z,302.31
2019-04-07T09:06:37.583Z,302.19
2019-04-07T09:07:37.932Z,302.16
2019-04-07T09:08:39.027Z,302.57
2019-04-07T09:09:44.864Z,302.43
2019-04-07T09:10:38.497Z,303.28
2019-04-07T09:11:39.774Z,303.90
2019-04-07T09:12:37.521Z,303.40
2019-04-07T09:13:37.464Z,303.68
2019-04-07T09:14:39.723Z,303.08
2019-04-07T09:15:39.126Z,303.65
2019-04-07T09:16:37.446Z,303.49
2019-04-07T09:17:43.731Z,303.33
2019-04-07T09:18:38.926Z,303.81
2019-04-07T09:19:37.424Z,303.64
2019-04-07T09:20:40.908Z,303.82
2019-04-07T09:21:41.377Z,303.69
2019-04-07T09:22:37.800Z,303.76
2019-04-07T09:23:38.092Z,303.56
2019-04-07T09:24:38.142Z,303.92
2019-04-07T09:25:40.022Z,303.97
2019-04-07T09:26:40.586Z,303.52
2019-04-07T09:27:38.388Z,303.03
2019-04-07T09:28:37.823Z,302.57
2019-04-07T09:29:37.664Z,301.54
2019-04-07T09:30:37.894Z,302.36
2019-04-07T09:31:37.294Z,301.18
2019-04-07T09:32:37.292Z,302.17
2019-04-07T09:33:38.107Z,301.01
2019-04-07T09:34:38.002Z,302.02
2019-04-07T09:35:37.676Z,302.35
2019-04-07T09:36:37.427Z,301.59
2019-04-07T09:37:37.799Z,301.99
2019-04-07T09:38:37.248Z,301.26
2019-04-07T09:39:54.076Z,301.23
2019-04-07T09:40:38.346Z,300.90
2019-04-07T09:41:38.345Z,300.97
2019-04-07T09:42:37.852Z,301.01
2019-04-07T09:43:37.179Z,301.09
2019-04-07T09:44:37.786Z,300.79
2019-04-07T09:45:39.414Z,300.50
2019-04-07T09:46:41.618Z,300.09
2019-04-07T09:47:38.131Z,299.74
2019-04-07T09:48:39.187Z,300.42
2019-04-07T09:49:37.861Z,300.08
2019-04-07T09:50:37.572Z,299.93
2019-04-07T09:51:40.251Z,300.15
2019-04-07T09:52:37.095Z,300.35
2019-04-07T09:53:38.206Z,299.62
2019-04-07T09:54:37.066Z,300.35
2019-04-07T09:55:37.800Z,300.54
2019-04-07T09:56:37.464Z,301.08
2019-04-07T09:57:38.759Z,301.60
2019-04-07T09:58:41.359Z,301.02
2019-04-07T09:59:38.481Z,300.83
2019-04-07T10:00:36.997Z,301.20
2019-04-07T10:01:36.975Z,301.53
2019-04-07T10:02:37.263Z,301.27
2019-04-07T10:03:38.100Z,300.90
2019-04-07T10:04:38.576Z,301.47
2019-04-07T10:05:40.251Z,301.08
2019-04-07T10:06:39.125Z,301.29
2019-04-07T10:07:40.229Z,301.49
2019-04-07T10:08:37.911Z,301.26
2019-04-07T10:09:36.919Z,301.89
2019-04-07T10:10:37.147Z,301.24
2019-04-07T10:11:37.366Z,301.39
2019-04-07T10:12:36.860Z,301.27
2019-04-07T10:13:36.862Z,301.55
2019-04-07T10:14:37.523Z,300.56
2019-04-07T10:15:37.486Z,301.41
2019-04-07T10:16:36.821Z,301.79
2019-04-07T10:17:37.221Z,301.17
2019-04-07T10:18:36.930Z,301.40
2019-04-07T10:19:37.420Z,300.76
2019-04-07T10:20:36.951Z,301.60
2019-04-07T10:21:36.918Z,300.98
2019-04-07T10:22:37.411Z,300.85
2019-04-07T10:23:37.380Z,301.04
2019-04-07T10:24:37.079Z,301.73
2019-04-07T10:25:36.768Z,301.34
2019-04-07T10:26:36.728Z,301.67
2019-04-07T10:27:36.875Z,300.80
2019-04-07T10:28:40.075Z,300.60
2019-04-07T10:29:36.694Z,301.10
2019-04-07T10:30:37.022Z,300.88
2019-04-07T10:31:36.690Z,300.61
2019-04-07T10:32:36.709Z,300.56
2019-04-07T10:33:36.653Z,300.51
2019-04-07T10:34:37.423Z,301.17
2019-04-07T10:35:36.639Z,300.39
2019-04-07T10:36:37.395Z,300.94
2019-04-07T10:37:36.619Z,300.76
2019-04-07T10:38:37.417Z,300.34
2019-04-07T10:39:37.096Z,300.47
2019-04-07T10:40:36.587Z,300.22
2019-04-07T10:41:37.142Z,300.72
2019-04-07T10:42:37.010Z,301.03
2019-04-07T10:43:36.546Z,300.65
2019-04-07T10:44:36.547Z,299.90
2019-04-07T10:45:36.597Z,299.14
2019-04-07T10:46:37.463Z,298.89
2019-04-07T10:47:36.830Z,299.00
2019-04-07T10:48:36.677Z,299.51
2019-04-07T10:49:37.291Z,299.04
2019-04-07T10:50:36.787Z,299.03
2019-04-07T10:51:36.539Z,299.34
2019-04-07T10:52:37.082Z,300.05
2019-04-07T10:53:37.027Z,299.70
2019-04-07T10:54:37.055Z,299.56
2019-04-07T10:55:36.430Z,300.51
2019-04-07T10:56:37.311Z,299.58
2019-04-07T10:57:36.711Z,299.82
2019-04-07T10:58:36.835Z,300.08
2019-04-07T10:59:36.896Z,299.64
2019-04-07T11:00:36.764Z,299.87
2019-04-07T11:01:36.408Z,299.80
2019-04-07T11:02:36.457Z,299.10
2019-04-07T11:03:36.381Z,299.93
2019-04-07T11:04:36.349Z,300.10
2019-04-07T11:05:36.333Z,300.11
2019-04-07T11:06:36.329Z,299.19
2019-04-07T11:07:36.483Z,299.12
2019-04-07T11:08:36.397Z,299.28
2019-04-07T11:09:36.752Z,299.50
2019-04-07T11:10:39.106Z,300.24
2019-04-07T11:11:36.282Z,299.76
2019-04-07T11:12:36.791Z,299.87
2019-04-07T11:13:36.286Z,298.95
2019-04-07T11:14:36.253Z,299.48
2019-04-07T11:15:36.991Z,299.09
2019-04-07T11:16:36.598Z,298.62
2019-04-07T11:17:36.224Z,299.00
2019-04-07T11:18:36.481Z,299.03
2019-04-07T11:19:36.278Z,299.54
2019-04-07T11:20:36.290Z,298.79
2019-04-07T11:21:36.310Z,298.73
2019-04-07T11:22:37.027Z,298.98
2019-04-07T11:23:36.280Z,298.72
2019-04-07T11:24:36.995Z,299.15
2019-04-07T11:25:36.159Z,299.55
2019-04-07T11:26:36.452Z,298.61
2019-04-07T11:27:36.619Z,298.99
2019-04-07T11:28:36.107Z,299.22
2019-04-07T11:29:37.756Z,299.20
2019-04-07T11:30:36.101Z,299.50
2019-04-07T11:31:36.853Z,299.83
2019-04-07T11:32:36.075Z,299.33
2019-04-07T11:33:36.237Z,299.11
2019-04-07T11:34:36.611Z,299.15
2019-04-07T11:35:36.845Z,298.59
2019-04-07T11:36:36.413Z,299.62
2019-04-07T11:37:36.475Z,298.75
2019-04-07T11:38:36.216Z,299.57
2019-04-07T11:39:36.227Z,299.07
2019-04-07T11:40:43.444Z,299.69
2019-04-07T11:41:37.296Z,298.27
2019-04-07T11:42:35.986Z,299.06
2019-04-07T11:43:35.994Z,298.81
2019-04-07T11:44:35.997Z,299.18
2019-04-07T11:45:35.953Z,298.93
2019-04-07T11:46:35.955Z,299.49
2019-04-07T11:47:36.211Z,299.24
2019-04-07T11:48:35.914Z,298.72
2019-04-07T11:49:35.923Z,299.69
2019-04-07T11:50:36.299Z,298.81
2019-04-07T11:51:35.906Z,299.45
2019-04-07T11:52:36.500Z,299.49
2019-04-07T11:53:35.868Z,299.30
2019-04-07T11:54:35.864Z,297.98
2019-04-07T11:55:36.623Z,298.16
2019-04-07T11:56:35.947Z,298.92
2019-04-07T11:57:35.881Z,298.42
2019-04-07T11:58:36.120Z,298.46
2019-04-07T11:59:35.996Z,297.54
2019-04-07T12:00:38.828Z,298.58
2019-04-07T12:01:35.814Z,298.91
2019-04-07T12:02:36.383Z,298.06
2019-04-07T12:03:35.814Z,298.14
2019-04-07T12:04:36.427Z,298.54
2019-04-07T12:05:36.561Z,298.60
2019-04-07T12:06:36.468Z,298.51
2019-04-07T12:07:35.801Z,298.50
2019-04-07T12:08:36.588Z,298.50
2019-04-07T12:09:36.010Z,298.58
2019-04-07T12:10:35.695Z,298.26
2019-04-07T12:11:36.302Z,298.84
2019-04-07T12:12:35.716Z,298.38
2019-04-07T12:13:35.678Z,297.57
2019-04-07T12:14:36.298Z,297.32
2019-04-07T12:15:35.821Z,296.35
2019-04-07T12:16:35.659Z,296.21
2019-04-07T12:17:39.492Z,296.04
2019-04-07T12:18:36.638Z,296.33
2019-04-07T12:19:35.621Z,295.95
2019-04-07T12:20:36.267Z,296.41
2019-04-07T12:21:37.437Z,295.77
2019-04-07T12:22:35.617Z,295.58
2019-04-07T12:23:35.570Z,295.71
2019-04-07T12:24:35.552Z,295.86
2019-04-07T12:25:36.275Z,295.61
2019-04-07T12:26:39.612Z,294.73
2019-04-07T12:27:36.571Z,295.33
2019-04-07T12:28:35.520Z,295.73